createdAt,value
2023-06-03T00:00:55.880Z,8.62
2023-06-03T00:03:44.841Z,8.55
2023-06-03T00:06:13.386Z,8.53
2023-06-03T00:08:40.481Z,8.49
2023-06-03T00:11:07.309Z,8.44
2023-06-03T00:13:34.591Z,8.38
2023-06-03T00:16:01.217Z,8.33
2023-06-03T00:18:27.899Z,8.29
2023-06-03T00:20:55.816Z,8.25
2023-06-03T00:23:22.398Z,8.20
2023-06-03T00:25:48.888Z,8.15
2023-06-03T00:28:15.627Z,8.11
2023-06-03T00:30:42.210Z,8.07
2023-06-03T00:33:08.619Z,8.02
2023-06-03T00:35:36.770Z,7.94
2023-06-03T00:38:03.931Z,7.92
2023-06-03T00:40:32.182Z,7.86
2023-06-03T00:42:59.870Z,7.79
2023-06-03T00:45:26.305Z,7.77
2023-06-03T00:47:52.964Z,7.74
2023-06-03T00:50:19.403Z,7.71
2023-06-03T00:52:47.038Z,7.65
2023-06-03T00:55:13.626Z,7.60
2023-06-03T00:57:40.113Z,7.55
2023-06-03T01:00:07.397Z,7.50
2023-06-03T01:02:36.933Z,7.44
2023-06-03T01:05:08.493Z,7.43
2023-06-03T01:07:47.620Z,7.43
2023-06-03T01:10:46.734Z,7.41
2023-06-03T01:13:37.071Z,7.33
2023-06-03T01:16:05.515Z,7.29
2023-06-03T01:18:35.596Z,7.26
2023-06-03T01:21:03.766Z,7.26
2023-06-03T01:23:34.278Z,7.25
2023-06-03T01:26:04.969Z,7.23
2023-06-03T01:28:31.791Z,7.18
2023-06-03T01:31:02.063Z,7.16
2023-06-03T01:33:29.999Z,7.13
2023-06-03T01:35:58.883Z,7.10
2023-06-03T01:38:26.146Z,7.06
2023-06-03T01:40:53.557Z,6.99
2023-06-03T01:43:20.644Z,6.93
2023-06-03T01:45:47.306Z,6.89
2023-06-03T01:48:14.626Z,6.88
2023-06-03T01:50:44.649Z,6.90
2023-06-03T01:53:12.733Z,6.91
2023-06-03T01:55:39.510Z,6.89
2023-06-03T01:58:06.073Z,6.83
2023-06-03T02:00:32.703Z,6.81
2023-06-03T02:02:59.220Z,6.73
2023-06-03T02:05:25.772Z,6.68
2023-06-03T02:07:52.112Z,6.67
2023-06-03T02:10:18.689Z,6.67
2023-06-03T02:12:44.993Z,6.65
2023-06-03T02:15:11.395Z,6.64
2023-06-03T02:17:37.822Z,6.64
2023-06-03T02:20:08.931Z,6.63
2023-06-03T02:22:35.817Z,6.62
2023-06-03T02:25:05.966Z,6.61
2023-06-03T02:27:32.356Z,6.59
2023-06-03T02:29:58.859Z,6.59
2023-06-03T02:32:25.252Z,6.64
2023-06-03T02:34:52.108Z,6.69
2023-06-03T02:37:18.470Z,6.70
2023-06-03T02:39:45.312Z,6.74
2023-06-03T02:42:12.333Z,6.76
2023-06-03T02:44:39.286Z,6.81
2023-06-03T02:47:06.429Z,6.84
2023-06-03T02:49:33.989Z,6.88
2023-06-03T02:52:00.934Z,6.89
2023-06-03T02:54:27.419Z,6.90
2023-06-03T02:56:53.806Z,6.93
2023-06-03T02:59:20.238Z,6.98
2023-06-03T03:01:46.806Z,7.04
2023-06-03T03:04:13.235Z,7.10
2023-06-03T03:06:41.128Z,7.14
2023-06-03T03:09:08.146Z,7.18
2023-06-03T03:11:34.865Z,7.23
2023-06-03T03:14:02.608Z,7.26
2023-06-03T03:16:29.008Z,7.30
2023-06-03T03:18:55.647Z,7.34
2023-06-03T03:21:22.214Z,7.40
2023-06-03T03:23:51.767Z,7.48
2023-06-03T03:26:22.137Z,7.55
2023-06-03T03:28:49.461Z,7.60
2023-06-03T03:31:16.873Z,7.66
2023-06-03T03:33:43.387Z,7.71
2023-06-03T03:36:14.127Z,7.75
2023-06-03T03:38:41.567Z,7.79
2023-06-03T03:41:08.112Z,7.87
2023-06-03T03:43:35.415Z,7.96
2023-06-03T03:46:02.224Z,8.03
2023-06-03T03:48:30.687Z,8.10
2023-06-03T03:50:57.249Z,8.14
2023-06-03T03:53:29.955Z,8.20
2023-06-03T03:55:57.880Z,8.28
2023-06-03T03:58:41.593Z,8.37
2023-06-03T04:01:24.889Z,8.43
2023-06-03T04:03:53.504Z,8.50
2023-06-03T04:06:33.208Z,8.57
2023-06-03T04:09:01.141Z,8.62
2023-06-03T04:11:29.641Z,8.68
2023-06-03T04:13:57.828Z,8.75
2023-06-03T04:16:45.960Z,8.82
2023-06-03T04:19:31.275Z,8.87
2023-06-03T04:21:58.686Z,8.92
2023-06-03T04:24:26.254Z,8.99
2023-06-03T04:26:53.885Z,9.10
2023-06-03T04:29:20.538Z,9.21
2023-06-03T04:31:46.925Z,9.22
2023-06-03T04:34:13.706Z,9.27
2023-06-03T04:36:40.066Z,9.33
2023-06-03T04:39:09.029Z,9.42
2023-06-03T04:41:39.223Z,9.50
2023-06-03T04:44:05.682Z,9.53
2023-06-03T04:46:32.570Z,9.62
2023-06-03T04:49:02.829Z,9.67
2023-06-03T04:51:35.744Z,9.73
2023-06-03T04:54:04.160Z,9.87
2023-06-03T04:56:31.204Z,10.03
2023-06-03T04:59:01.131Z,10.10
2023-06-03T05:01:28.476Z,10.20
2023-06-03T05:03:56.382Z,10.31
2023-06-03T05:06:24.058Z,10.40
2023-06-03T05:08:51.858Z,10.50
2023-06-03T05:11:19.474Z,10.61
2023-06-03T05:13:46.475Z,10.69
2023-06-03T05:16:13.567Z,10.77
2023-06-03T05:18:40.760Z,10.84
2023-06-03T05:21:08.219Z,10.93
2023-06-03T05:23:35.060Z,11.03
2023-06-03T05:26:01.580Z,11.13
2023-06-03T05:28:28.144Z,11.27
2023-06-03T05:30:54.888Z,11.42
2023-06-03T05:33:29.387Z,11.55
2023-06-03T05:35:56.743Z,11.70
2023-06-03T05:38:24.084Z,11.78
2023-06-03T05:40:51.665Z,11.90
2023-06-03T05:43:19.021Z,12.16
2023-06-03T05:45:46.889Z,12.40
2023-06-03T05:48:13.856Z,12.62
2023-06-03T05:50:48.969Z,13.01
2023-06-03T05:53:15.568Z,13.50
2023-06-03T05:55:43.344Z,14.10
2023-06-03T05:58:09.698Z,14.57
2023-06-03T06:00:37.241Z,14.98
2023-06-03T06:03:03.764Z,15.38
2023-06-03T06:05:30.231Z,15.77
2023-06-03T06:07:56.966Z,16.09
2023-06-03T06:10:23.485Z,16.44
2023-06-03T06:12:49.878Z,16.83
2023-06-03T06:15:16.260Z,17.19
2023-06-03T06:17:45.991Z,17.07
2023-06-03T06:20:12.852Z,17.53
2023-06-03T06:22:39.816Z,17.96
2023-06-03T06:25:07.543Z,18.24
2023-06-03T06:27:34.977Z,18.48
2023-06-03T06:30:03.327Z,18.71
2023-06-03T06:39:36.251Z,19.68
2023-06-03T06:42:13.043Z,19.69
2023-06-03T06:44:49.323Z,19.92
2023-06-03T06:47:25.593Z,20.03
2023-06-03T06:50:00.488Z,20.06
2023-06-03T06:52:30.921Z,20.02
2023-06-03T06:55:00.382Z,20.12
2023-06-03T06:57:30.032Z,20.19
2023-06-03T06:59:57.922Z,20.30
2023-06-03T07:02:26.792Z,20.54
2023-06-03T07:04:54.694Z,20.66
2023-06-03T07:07:22.445Z,20.38
2023-06-03T07:09:50.675Z,20.55
2023-06-03T07:12:18.614Z,20.97
2023-06-03T07:14:46.535Z,21.27
2023-06-03T07:17:15.572Z,21.45
2023-06-03T07:19:43.310Z,21.77
2023-06-03T07:22:11.095Z,21.81
2023-06-03T07:24:40.113Z,22.25
2023-06-03T07:27:09.087Z,22.79
2023-06-03T07:29:39.587Z,23.04
2023-06-03T07:32:09.221Z,23.23
2023-06-03T07:34:38.136Z,23.04
2023-06-03T07:37:12.921Z,23.14
2023-06-03T07:39:42.452Z,23.64
2023-06-03T07:42:23.097Z,23.77
2023-06-03T07:44:51.165Z,24.19
2023-06-03T07:47:19.114Z,24.33
2023-06-03T07:49:49.378Z,24.54
2023-06-03T07:52:19.936Z,24.77
2023-06-03T07:54:48.487Z,24.69
2023-06-03T07:57:17.154Z,24.49
2023-06-03T07:59:56.447Z,24.50
2023-06-03T08:02:24.847Z,24.42
2023-06-03T08:04:57.421Z,24.27
2023-06-03T08:07:26.421Z,23.52
2023-06-03T08:09:54.442Z,23.46
2023-06-03T08:12:32.655Z,24.10
2023-06-03T08:15:02.539Z,24.65
2023-06-03T08:17:42.228Z,24.61
2023-06-03T08:20:11.462Z,24.36
2023-06-03T08:22:46.200Z,24.12
2023-06-03T08:25:14.576Z,23.87
2023-06-03T08:27:42.475Z,24.07
2023-06-03T08:30:14.151Z,24.27
2023-06-03T08:32:43.253Z,24.51
2023-06-03T08:35:17.929Z,25.00
2023-06-03T08:37:46.134Z,25.44
2023-06-03T08:40:18.192Z,23.61
2023-06-03T08:42:48.782Z,24.21
2023-06-03T08:45:19.186Z,24.96
2023-06-03T08:48:02.115Z,25.06
2023-06-03T08:50:30.086Z,26.23
2023-06-03T08:52:59.345Z,26.32
2023-06-03T08:55:27.952Z,25.85
2023-06-03T08:58:03.594Z,25.07
2023-06-03T09:00:31.867Z,25.39
2023-06-03T09:03:00.258Z,26.27
2023-06-03T09:05:29.177Z,26.33
2023-06-03T09:07:57.873Z,25.79
2023-06-03T09:10:27.407Z,25.34
2023-06-03T09:12:58.829Z,24.76
2023-06-03T09:15:27.456Z,25.50
2023-06-03T09:17:55.288Z,26.49
2023-06-03T09:20:24.915Z,26.40
2023-06-03T09:22:53.780Z,26.83
2023-06-03T09:25:21.600Z,27.97
2023-06-03T09:27:49.558Z,28.95
2023-06-03T09:30:20.433Z,29.10
2023-06-03T09:32:48.287Z,28.41
2023-06-03T09:35:16.450Z,28.03
2023-06-03T09:37:59.456Z,27.39
2023-06-03T09:40:32.631Z,26.49
2023-06-03T09:43:00.930Z,27.11
2023-06-03T09:45:30.661Z,27.65
2023-06-03T09:47:59.743Z,28.00
2023-06-03T09:50:30.111Z,29.38
2023-06-03T09:52:58.962Z,29.99
2023-06-03T09:55:37.665Z,29.55
2023-06-03T09:58:10.013Z,30.26
2023-06-03T10:01:00.397Z,31.15
2023-06-03T10:04:16.318Z,32.35
2023-06-03T10:07:15.834Z,31.36
2023-06-03T10:09:51.176Z,31.01
2023-06-03T10:12:34.117Z,30.97
2023-06-03T10:15:04.866Z,31.44
2023-06-03T10:17:47.681Z,31.78
2023-06-03T10:20:34.425Z,32.31
2023-06-03T10:23:06.528Z,32.46
2023-06-03T10:25:58.343Z,33.14
2023-06-03T10:28:38.364Z,33.97
2023-06-03T10:31:14.322Z,34.62
2023-06-03T10:33:42.685Z,33.08
2023-06-03T10:36:13.221Z,31.29
2023-06-03T10:38:41.778Z,31.58
2023-06-03T10:41:12.201Z,32.19
2023-06-03T10:43:43.185Z,31.74
2023-06-03T10:46:13.389Z,32.07
2023-06-03T10:48:45.425Z,32.16
2023-06-03T10:51:48.149Z,33.24
2023-06-03T10:54:31.430Z,33.82
2023-06-03T10:57:07.823Z,32.88
2023-06-03T10:59:44.684Z,30.81
2023-06-03T11:02:13.699Z,31.25
2023-06-03T11:04:42.020Z,32.37
2023-06-03T11:07:42.465Z,33.29
2023-06-03T11:10:37.013Z,34.12
2023-06-03T11:21:52.972Z,34.27
2023-06-03T11:24:39.443Z,35.31
2023-06-03T11:27:13.519Z,35.60
2023-06-03T11:29:47.132Z,34.61
2023-06-03T11:32:16.212Z,34.56
2023-06-03T11:34:48.755Z,35.29
2023-06-03T11:37:21.048Z,36.02
2023-06-03T11:40:08.682Z,36.60
2023-06-03T11:42:45.786Z,36.61
2023-06-03T11:45:22.762Z,36.88
2023-06-03T11:47:51.045Z,35.83
2023-06-03T11:50:20.548Z,35.41
2023-06-03T11:52:50.666Z,34.93
2023-06-03T11:55:25.497Z,35.48
2023-06-03T11:57:53.585Z,35.63
2023-06-03T12:00:21.782Z,35.81
2023-06-03T12:02:49.853Z,35.36
2023-06-03T12:05:19.012Z,35.43
2023-06-03T12:08:05.935Z,35.25
2023-06-03T12:10:42.048Z,35.59
2023-06-03T12:13:12.522Z,35.44
2023-06-03T12:15:50.007Z,36.03
2023-06-03T12:18:17.847Z,36.50
2023-06-03T12:20:48.986Z,36.61
2023-06-03T12:23:21.900Z,36.66
2023-06-03T12:25:56.657Z,36.41
2023-06-03T12:28:26.093Z,36.68
2023-06-03T12:30:53.990Z,37.15
2023-06-03T12:33:21.868Z,36.75
2023-06-03T12:35:57.446Z,36.52
2023-06-03T12:38:25.645Z,36.74
2023-06-03T12:41:09.247Z,36.74
2023-06-03T12:43:37.125Z,36.01
2023-06-03T12:46:18.609Z,35.48
2023-06-03T12:48:46.475Z,35.72
2023-06-03T12:51:34.656Z,35.66
2023-06-03T12:54:02.711Z,35.58
2023-06-03T12:56:30.529Z,35.71
2023-06-03T12:58:59.032Z,35.83
2023-06-03T13:01:27.809Z,36.03
2023-06-03T13:03:56.704Z,36.19
2023-06-03T13:06:25.513Z,36.51
2023-06-03T13:08:53.679Z,35.40
2023-06-03T13:11:22.874Z,35.42
2023-06-03T13:13:50.901Z,36.06
2023-06-03T13:16:19.009Z,35.81
2023-06-03T13:18:46.822Z,35.83
2023-06-03T13:21:14.573Z,35.83
2023-06-03T13:23:42.608Z,35.96
2023-06-03T13:26:10.490Z,36.35
2023-06-03T13:28:38.772Z,36.35
2023-06-03T13:31:07.071Z,36.61
2023-06-03T13:33:35.598Z,36.03
2023-06-03T13:36:03.848Z,34.88
2023-06-03T13:38:37.363Z,33.86
2023-06-03T13:41:07.073Z,34.08
2023-06-03T13:43:36.192Z,34.56
2023-06-03T13:46:04.095Z,34.84
2023-06-03T13:48:32.995Z,34.49
2023-06-03T13:51:02.371Z,34.11
2023-06-03T13:53:30.398Z,33.95
2023-06-03T13:55:58.848Z,33.97
2023-06-03T13:58:27.062Z,33.90
2023-06-03T14:00:54.816Z,34.14
2023-06-03T14:03:22.655Z,34.21
2023-06-03T14:05:51.253Z,34.32
2023-06-03T14:08:20.795Z,34.38
2023-06-03T14:10:48.902Z,34.30
2023-06-03T14:13:16.812Z,34.40
2023-06-03T14:15:44.711Z,33.88
2023-06-03T14:18:12.459Z,33.98
2023-06-03T14:20:40.319Z,34.54
2023-06-03T14:23:08.482Z,34.85
2023-06-03T14:25:36.374Z,34.93
2023-06-03T14:28:04.333Z,34.53
2023-06-03T14:30:56.176Z,34.66
2023-06-03T14:33:30.228Z,34.73
2023-06-03T14:35:58.839Z,34.42
2023-06-03T14:38:34.065Z,34.12
2023-06-03T14:41:07.578Z,34.19
2023-06-03T14:43:42.215Z,34.50
2023-06-03T14:46:12.631Z,34.85
2023-06-03T14:48:43.127Z,34.89
2023-06-03T14:51:13.166Z,35.02
2023-06-03T14:53:47.137Z,35.47
2023-06-03T14:56:18.144Z,35.72
2023-06-03T14:58:51.826Z,35.92
2023-06-03T15:01:22.163Z,36.19
2023-06-03T15:03:54.666Z,35.98
2023-06-03T15:06:26.152Z,35.91
2023-06-03T15:09:16.612Z,36.48
2023-06-03T15:11:49.871Z,36.52
2023-06-03T15:14:37.168Z,36.66
2023-06-03T15:17:06.033Z,36.90
2023-06-03T15:19:34.191Z,36.99
2023-06-03T15:25:29.187Z,38.97
2023-06-03T15:27:57.496Z,39.50
2023-06-03T15:30:26.035Z,39.10
2023-06-03T15:32:54.435Z,39.05
2023-06-03T15:35:22.731Z,37.99
2023-06-03T15:44:55.933Z,39.40
2023-06-03T15:47:25.719Z,39.29
2023-06-03T15:49:59.475Z,37.84
2023-06-03T15:52:27.963Z,35.45
2023-06-03T15:54:57.390Z,32.79
2023-06-03T15:57:25.804Z,30.68
2023-06-03T15:59:54.036Z,29.81
2023-06-03T16:02:22.538Z,28.84
2023-06-03T16:04:51.396Z,27.54
2023-06-03T16:07:19.793Z,27.24
2023-06-03T16:09:48.271Z,27.11
2023-06-03T16:12:16.960Z,26.67
2023-06-03T16:14:45.629Z,26.33
2023-06-03T16:17:13.589Z,26.12
2023-06-03T16:19:42.726Z,25.91
2023-06-03T16:22:10.931Z,25.48
2023-06-03T16:24:39.084Z,25.37
2023-06-03T16:27:08.471Z,25.20
2023-06-03T16:29:37.026Z,24.89
2023-06-03T16:39:12.807Z,24.30
2023-06-03T16:41:43.355Z,24.18
2023-06-03T16:44:11.493Z,24.21
2023-06-03T16:46:39.232Z,24.09
2023-06-03T16:49:07.403Z,23.81
2023-06-03T16:51:35.849Z,23.63
2023-06-03T16:54:03.993Z,23.46
2023-06-03T16:56:32.294Z,23.39
2023-06-03T16:59:00.778Z,23.35
2023-06-03T17:01:28.537Z,23.25
2023-06-03T17:03:58.433Z,23.13
2023-06-03T17:06:26.358Z,22.93
2023-06-03T17:08:54.811Z,22.84
2023-06-03T17:11:23.206Z,22.66
2023-06-03T17:13:51.274Z,22.53
2023-06-03T17:16:19.020Z,22.44
2023-06-03T17:18:47.059Z,22.37
2023-06-03T17:21:15.049Z,22.15
2023-06-03T17:23:42.842Z,21.94
2023-06-03T17:26:10.598Z,21.90
2023-06-03T17:28:38.795Z,21.76
2023-06-03T17:31:06.870Z,21.72
2023-06-03T17:33:35.021Z,21.72
2023-06-03T17:36:02.865Z,21.66
2023-06-03T17:38:30.833Z,21.46
2023-06-03T17:40:58.611Z,21.34
2023-06-03T17:43:26.839Z,21.27
2023-06-03T17:45:54.558Z,21.21
2023-06-03T17:48:22.647Z,21.15
2023-06-03T17:50:50.701Z,21.04
2023-06-03T17:53:18.500Z,20.86
2023-06-03T17:55:46.558Z,20.72
2023-06-03T17:58:14.745Z,20.64
2023-06-03T18:00:42.593Z,20.45
2023-06-03T18:03:11.406Z,20.35
2023-06-03T18:05:39.719Z,20.25
2023-06-03T18:08:07.643Z,20.12
2023-06-03T18:10:35.656Z,20.04
2023-06-03T18:13:06.348Z,19.93
2023-06-03T18:15:36.309Z,19.82
2023-06-03T18:18:04.546Z,19.72
2023-06-03T18:20:32.558Z,19.63
2023-06-03T18:23:00.634Z,19.43
2023-06-03T18:25:28.414Z,19.30
2023-06-03T18:27:56.497Z,19.15
2023-06-03T18:30:24.269Z,18.97
2023-06-03T18:32:52.138Z,18.86
2023-06-03T18:35:20.487Z,18.73
2023-06-03T18:37:49.460Z,18.59
2023-06-03T18:40:17.682Z,18.42
2023-06-03T18:42:45.871Z,18.26
2023-06-03T18:45:14.754Z,18.11
2023-06-03T18:47:44.947Z,17.91
2023-06-03T18:50:13.391Z,17.79
2023-06-03T18:52:41.304Z,17.70
2023-06-03T18:55:09.861Z,17.57
2023-06-03T18:57:37.723Z,17.48
2023-06-03T19:00:07.656Z,17.44
2023-06-03T19:02:36.317Z,17.30
2023-06-03T19:05:10.298Z,17.20
2023-06-03T19:07:38.464Z,17.10
2023-06-03T19:10:07.824Z,17.10
2023-06-03T19:12:36.605Z,17.08
2023-06-03T19:15:05.554Z,16.96
2023-06-03T19:17:38.621Z,16.85
2023-06-03T19:20:08.573Z,16.74
2023-06-03T19:22:40.635Z,16.69
2023-06-03T19:25:10.178Z,16.68
2023-06-03T19:27:39.535Z,16.62
2023-06-03T19:30:08.553Z,16.51
2023-06-03T19:32:37.918Z,16.46
2023-06-03T19:35:08.629Z,16.36
2023-06-03T19:38:31.405Z,16.24
2023-06-03T19:40:59.274Z,16.01
2023-06-03T19:43:27.309Z,15.99
2023-06-03T19:45:55.295Z,15.97
2023-06-03T19:48:24.592Z,15.94
2023-06-03T19:50:55.002Z,15.91
2023-06-03T19:53:23.750Z,15.83
2023-06-03T19:55:51.738Z,15.79
2023-06-03T19:58:19.517Z,15.71
2023-06-03T20:00:48.337Z,15.63
2023-06-03T20:03:17.059Z,15.54
2023-06-03T20:05:45.339Z,15.39
2023-06-03T20:08:13.336Z,15.31
2023-06-03T20:10:42.201Z,15.28
2023-06-03T20:13:21.307Z,15.25
2023-06-03T20:15:57.849Z,15.16
2023-06-03T20:18:26.793Z,15.03
2023-06-03T20:20:54.863Z,14.97
2023-06-03T20:23:22.984Z,14.93
2023-06-03T20:25:51.073Z,14.87
2023-06-03T20:28:19.066Z,14.80
2023-06-03T20:30:47.123Z,14.75
2023-06-03T20:33:15.055Z,14.70
2023-06-03T20:35:43.576Z,14.63
2023-06-03T20:38:13.520Z,14.64
2023-06-03T20:40:42.686Z,14.67
2023-06-03T20:43:10.888Z,14.63
2023-06-03T20:45:43.101Z,14.59
2023-06-03T20:48:12.271Z,14.55
2023-06-03T20:50:40.508Z,14.50
2023-06-03T20:53:10.714Z,14.42
2023-06-03T20:59:16.469Z,14.29
2023-06-03T21:01:44.212Z,14.11
2023-06-03T21:04:12.494Z,14.00
2023-06-03T21:06:42.550Z,13.91
2023-06-03T21:09:11.791Z,13.82
2023-06-03T21:11:39.616Z,13.77
2023-06-03T21:14:07.410Z,13.67
2023-06-03T21:16:35.881Z,13.61
2023-06-03T21:19:03.866Z,13.58
2023-06-03T21:21:31.643Z,13.50
2023-06-03T21:23:59.899Z,13.39
2023-06-03T21:26:27.884Z,13.30
2023-06-03T21:28:55.774Z,13.23
2023-06-03T21:31:23.641Z,13.15
2023-06-03T21:33:51.526Z,13.07
2023-06-03T21:36:19.372Z,13.05
2023-06-03T21:38:47.023Z,12.97
2023-06-03T21:41:14.712Z,12.86
2023-06-03T21:43:42.674Z,12.74
2023-06-03T21:46:11.106Z,12.63
2023-06-03T21:48:40.185Z,12.61
2023-06-03T21:51:08.049Z,12.60
2023-06-03T21:53:35.993Z,12.54
2023-06-03T21:56:03.876Z,12.44
2023-06-03T21:58:31.812Z,12.39
2023-06-03T22:00:59.606Z,12.35
2023-06-03T22:03:27.353Z,12.27
2023-06-03T22:05:55.501Z,12.20
2023-06-03T22:08:23.240Z,12.13
2023-06-03T22:10:51.648Z,12.07
2023-06-03T22:13:19.447Z,12.05
2023-06-03T22:15:47.268Z,12.00
2023-06-03T22:18:15.985Z,11.94
2023-06-03T22:20:43.910Z,11.86
2023-06-03T22:23:11.801Z,11.82
2023-06-03T22:25:39.532Z,11.73
2023-06-03T22:28:07.500Z,11.64
2023-06-03T22:30:35.302Z,11.56
2023-06-03T22:33:03.915Z,11.42
2023-06-03T22:35:32.129Z,11.32
2023-06-03T22:38:00.676Z,11.32
2023-06-03T22:40:28.480Z,11.27
2023-06-03T22:42:56.205Z,11.16
2023-06-03T22:45:23.951Z,11.03
2023-06-03T22:47:52.295Z,10.99
2023-06-03T22:50:20.046Z,10.92
2023-06-03T22:52:47.823Z,10.84
2023-06-03T22:55:15.716Z,10.77
2023-06-03T22:57:43.527Z,10.80
2023-06-03T23:00:12.369Z,10.81
2023-06-03T23:02:40.399Z,10.81
2023-06-03T23:05:08.624Z,10.80
2023-06-03T23:07:36.589Z,10.77
2023-06-03T23:10:04.692Z,10.73
2023-06-03T23:12:32.562Z,10.67
2023-06-03T23:15:00.422Z,10.62
2023-06-03T23:17:28.253Z,10.60
2023-06-03T23:19:56.004Z,10.58
2023-06-03T23:22:23.735Z,10.58
2023-06-03T23:24:51.517Z,10.54
2023-06-03T23:27:19.333Z,10.46
2023-06-03T23:29:47.389Z,10.38
2023-06-03T23:32:15.116Z,10.34
2023-06-03T23:34:42.890Z,10.31
2023-06-03T23:37:10.818Z,10.26
2023-06-03T23:39:38.506Z,10.21
2023-06-03T23:42:07.982Z,10.11
2023-06-03T23:44:35.733Z,10.05
2023-06-03T23:47:03.641Z,10.00
2023-06-03T23:49:31.309Z,9.97
2023-06-03T23:51:59.114Z,9.96
2023-06-03T23:54:27.032Z,9.88
2023-06-03T23:56:54.850Z,9.81
2023-06-03T23:59:22.517Z,9.78
